Time;durP1;ratioP1;P1;durP2;ratioP2;P2;SDS_P1;SDS_P2;PMS_P1;PMS_P2;Temp;Humidity;BMP_temperature;BMP_pressure;BME280_temperature;BME280_humidity;BME280_pressure;Samples;Min_cycle;Max_cycle;Signal;HPM_P1;HPM_P2
2023/10/20 00:01:53;;;;;;;0.10;0.10;;;;;;;-144.59;100.00;63158.22;5153375;27;20221;-59
2023/10/20 00:04:40;;;;;;;0.10;0.10;;;;;;;-144.59;100.00;63158.22;5153656;27;20189;-59
2023/10/20 00:07:27;;;;;;;0.10;0.10;;;;;;;-144.59;100.00;63158.22;5155676;27;20195;-59
2023/10/20 00:10:15;;;;;;;0.10;0.10;;;;;;;-144.59;100.00;63158.22;5157403;27;20184;-59
2023/10/20 00:13:02;;;;;;;0.10;0.10;;;;;;;-144.59;100.00;63158.22;5157294;27;20189;-59
2023/10/20 00:15:50;;;;;;;0.10;0.10;;;;;;;-144.59;100.00;63158.22;5141593;27;20196;-59
2023/10/20 00:18:36;;;;;;;0.10;0.10;;;;;;;-144.59;100.00;63158.22;5157363;27;20305;-59
2023/10/20 00:21:24;;;;;;;0.10;0.10;;;;;;;-144.59;100.00;63158.22;5155645;27;20224;-59
2023/10/20 00:24:11;;;;;;;0.10;0.10;;;;;;;-144.59;100.00;63158.22;5157544;27;20607;-59
2023/10/20 00:27:00;;;;;;;0.10;0.10;;;;;;;-144.59;100.00;63158.22;5157145;27;20208;-59
2023/10/20 00:29:47;;;;;;;0.10;0.10;;;;;;;-144.59;100.00;63158.22;5141535;27;20188;-59
2023/10/20 00:32:34;;;;;;;0.10;0.10;;;;;;;-144.59;100.00;63158.22;5157161;27;20414;-59
2023/10/20 00:35:20;;;;;;;0.10;0.10;;;;;;;-144.59;100.00;63158.22;5156660;27;20224;-59
2023/10/20 00:38:07;;;;;;;0.10;0.10;;;;;;;-144.59;100.00;63158.22;5156699;27;20278;-59
2023/10/20 00:40:54;;;;;;;0.10;0.10;;;;;;;-144.59;100.00;63158.22;5156712;27;20706;-59
2023/10/20 00:43:43;;;;;;;0.10;0.10;;;;;;;-144.59;100.00;63158.22;5156743;27;20189;-59
2023/10/20 00:46:30;;;;;;;0.10;0.10;;;;;;;-144.59;100.00;63158.22;5156379;27;20189;-59
2023/10/20 00:49:17;;;;;;;0.10;0.10;;;;;;;-144.59;100.00;63158.22;5156634;27;20188;-59
2023/10/20 00:52:06;;;;;;;0.10;0.10;;;;;;;-144.59;100.00;63158.22;5139357;27;20262;-59
2023/10/20 00:54:54;;;;;;;0.10;0.10;;;;;;;-144.59;100.00;63158.22;5156554;27;20211;-59
2023/10/20 00:57:43;;;;;;;0.10;0.10;;;;;;;-144.59;100.00;63158.22;5140894;27;20231;-57
2023/10/20 01:00:31;;;;;;;0.10;0.10;;;;;;;-144.59;100.00;63158.22;5156331;27;20185;-57
2023/10/20 01:03:18;;;;;;;0.10;0.10;;;;;;;-144.59;100.00;63158.22;5140548;27;20209;-57
2023/10/20 01:06:06;;;;;;;0.10;0.10;;;;;;;-144.59;100.00;63158.22;5139318;27;20188;-57
2023/10/20 01:08:56;;;;;;;0.10;0.10;;;;;;;-144.59;100.00;63158.22;5156332;27;20263;-57
2023/10/20 01:11:45;;;;;;;0.10;0.10;;;;;;;-144.59;100.00;63158.22;5140260;27;20200;-56
2023/10/20 01:14:31;;;;;;;0.10;0.10;;;;;;;-144.59;100.00;63158.22;5140343;27;20196;-57
2023/10/20 01:17:19;;;;;;;0.10;0.10;;;;;;;-144.59;100.00;63158.22;5155834;27;20239;-57
2023/10/20 01:20:08;;;;;;;0.10;0.10;;;;;;;-144.59;100.00;63158.22;5156059;27;20189;-57
2023/10/20 01:22:55;;;;;;;0.10;0.10;;;;;;;-144.59;100.00;63158.22;5139250;27;20189;-57
2023/10/20 01:25:43;;;;;;;0.10;0.10;;;;;;;-144.59;100.00;63158.22;5140213;27;20184;-57
2023/10/20 01:28:30;;;;;;;0.10;0.10;;;;;;;-144.59;100.00;63158.22;5156065;27;20212;-57
2023/10/20 01:31:17;;;;;;;0.10;0.10;;;;;;;-144.59;100.00;63158.22;5155997;27;20295;-57
2023/10/20 01:34:05;;;;;;;0.10;0.10;;;;;;;-144.59;100.00;63158.22;5139991;27;20223;-57
2023/10/20 01:36:51;;;;;;;0.10;0.10;;;;;;;-144.59;100.00;63158.22;5154333;27;20192;-56
2023/10/20 01:39:38;;;;;;;0.10;0.10;;;;;;;-144.59;100.00;63158.22;5155745;27;20196;-57
2023/10/20 01:42:27;;;;;;;0.10;0.10;;;;;;;-144.59;100.00;63158.22;5155212;27;20219;-57
2023/10/20 01:45:14;;;;;;;0.10;0.10;;;;;;;-144.59;100.00;63158.22;5155622;27;20221;-57
2023/10/20 01:48:00;;;;;;;0.10;0.10;;;;;;;-144.59;100.00;63158.22;5155247;27;20200;-57
2023/10/20 01:50:47;;;;;;;0.10;0.10;;;;;;;-144.59;100.00;63158.22;5154054;27;20285;-57
2023/10/20 01:53:34;;;;;;;0.10;0.10;;;;;;;-144.59;100.00;63158.22;5155249;27;20201;-57
2023/10/20 01:56:21;;;;;;;0.10;0.10;;;;;;;-144.59;100.00;63158.22;5139457;27;20292;-57
2023/10/20 01:59:09;;;;;;;0.10;0.10;;;;;;;-144.59;100.00;63158.22;5139335;27;20197;-57
2023/10/20 02:01:56;;;;;;;0.10;0.10;;;;;;;-144.59;100.00;63158.22;5139254;27;20217;-56
2023/10/20 02:04:43;;;;;;;0.10;0.10;;;;;;;-144.59;100.00;63158.22;5155177;27;20196;-57
2023/10/20 02:07:30;;;;;;;0.10;0.10;;;;;;;-144.59;100.00;63158.22;5153999;27;20185;-57
2023/10/20 02:10:17;;;;;;;0.10;0.10;;;;;;;-144.59;100.00;63158.22;5155175;27;20196;-57
2023/10/20 02:13:04;;;;;;;0.10;0.10;;;;;;;-144.59;100.00;63158.22;5139200;27;20192;-57
2023/10/20 02:15:52;;;;;;;0.10;0.10;;;;;;;-144.59;100.00;63158.22;5139194;27;20193;-57
2023/10/20 02:18:39;;;;;;;0.10;0.10;;;;;;;-144.59;100.00;63158.22;5139147;27;20188;-56
2023/10/20 02:21:26;;;;;;;0.10;0.10;;;;;;;-144.59;100.00;63158.22;5153399;27;20208;-57
2023/10/20 02:24:13;;;;;;;0.10;0.10;;;;;;;-144.59;100.00;63158.22;5154753;27;20181;-56
2023/10/20 02:27:00;;;;;;;0.10;0.10;;;;;;;-144.59;100.00;63158.22;5154935;27;20210;-57
2023/10/20 02:29:47;;;;;;;0.10;0.10;;;;;;;-144.59;100.00;63158.22;5153892;27;20189;-57
2023/10/20 02:32:36;;;;;;;0.10;0.10;;;;;;;-144.59;100.00;63158.22;5139009;27;20200;-57
2023/10/20 02:35:22;;;;;;;0.10;0.10;;;;;;;-144.59;100.00;63158.22;5135157;27;20225;-57
2023/10/20 02:38:09;;;;;;;0.10;0.10;;;;;;;-144.59;100.00;63158.22;5133934;27;20204;-57
2023/10/20 02:40:56;;;;;;;0.10;0.10;;;;;;;-144.59;100.00;63158.22;5133892;27;20291;-57
2023/10/20 02:43:43;;;;;;;0.10;0.10;;;;;;;-144.59;100.00;63158.22;5118319;28;20320;-57
2023/10/20 02:46:31;;;;;;;0.10;0.10;;;;;;;-144.59;100.00;63158.22;5133860;27;20236;-57
2023/10/20 02:49:20;;;;;;;0.10;0.10;;;;;;;-144.59;100.00;63158.22;5133259;27;20272;-57
2023/10/20 02:52:07;;;;;;;0.10;0.10;;;;;;;-144.59;100.00;63158.22;5116727;28;20239;-57
2023/10/20 02:54:54;;;;;;;0.10;0.10;;;;;;;-144.59;100.00;63158.22;5133853;28;20683;-57
2023/10/20 02:57:41;;;;;;;0.10;0.10;;;;;;;-144.59;100.00;63158.22;5133567;28;20189;-57
2023/10/20 03:00:28;;;;;;;0.10;0.10;;;;;;;-144.59;100.00;63158.22;5133505;28;20193;-56
2023/10/20 03:03:14;;;;;;;0.10;0.10;;;;;;;-144.59;100.00;63158.22;5133066;28;20268;-59
2023/10/20 03:06:04;;;;;;;0.10;0.10;;;;;;;-144.59;100.00;63158.22;5116839;28;20241;-59
2023/10/20 03:08:51;;;;;;;0.10;0.10;;;;;;;-144.59;100.00;63158.22;5133761;28;20215;-59
2023/10/20 03:11:38;;;;;;;0.10;0.10;;;;;;;-144.59;100.00;63158.22;5133500;28;20197;-59
2023/10/20 03:14:24;;;;;;;0.10;0.10;;;;;;;-144.59;100.00;63158.22;5133491;28;20196;-59
2023/10/20 03:17:12;;;;;;;0.10;0.10;;;;;;;-144.59;100.00;63158.22;5127071;28;20189;-59
2023/10/20 03:19:59;;;;;;;0.10;0.10;;;;;;;-144.59;100.00;63158.22;5117964;28;20196;-59
2023/10/20 03:22:49;;;;;;;0.10;0.10;;;;;;;-144.59;100.00;63158.22;5116426;28;20217;-59
2023/10/20 03:25:36;;;;;;;0.10;0.10;;;;;;;-144.59;100.00;63158.22;5133474;28;20377;-59
2023/10/20 03:28:23;;;;;;;0.10;0.10;;;;;;;-144.59;100.00;63158.22;5133212;28;20263;-59
2023/10/20 03:31:10;;;;;;;0.10;0.10;;;;;;;-144.59;100.00;63158.22;5117614;28;20554;-59
2023/10/20 03:33:56;;;;;;;0.10;0.10;;;;;;;-144.59;100.00;63158.22;5132852;28;20221;-59
2023/10/20 03:36:43;;;;;;;0.10;0.10;;;;;;;-144.59;100.00;63158.22;5132034;28;20239;-59
2023/10/20 03:39:33;;;;;;;0.10;0.10;;;;;;;-144.59;100.00;63158.22;5133119;27;20186;-59
2023/10/20 03:42:21;;;;;;;0.10;0.10;;;;;;;-144.59;100.00;63158.22;5137235;27;20216;-59
2023/10/20 03:45:09;;;;;;;0.10;0.10;;;;;;;-144.59;100.00;63158.22;5137296;27;20190;-59
2023/10/20 03:47:58;;;;;;;0.10;0.10;;;;;;;-144.59;100.00;63158.22;5121356;27;20243;-59
2023/10/20 03:50:46;;;;;;;0.10;0.10;;;;;;;-144.59;100.00;63158.22;5120162;27;20205;-59
2023/10/20 03:53:41;;;;;;;0.10;0.10;;;;;;;-144.59;100.00;63158.22;5137063;27;20197;-59
2023/10/20 03:56:29;;;;;;;0.10;0.10;;;;;;;-144.59;100.00;63158.22;5137099;27;20186;-59
2023/10/20 03:59:17;;;;;;;0.10;0.10;;;;;;;-144.59;100.00;63158.22;5137054;27;20197;-59
2023/10/20 04:02:04;;;;;;;0.10;0.10;;;;;;;-144.59;100.00;63158.22;5136533;27;20189;-59
2023/10/20 04:04:51;;;;;;;0.10;0.10;;;;;;;-144.59;100.00;63158.22;5136721;27;20279;-59
2023/10/20 04:07:37;;;;;;;0.10;0.10;;;;;;;-144.59;100.00;63158.22;5135651;27;20263;-59
2023/10/20 04:10:24;;;;;;;0.10;0.10;;;;;;;-144.59;100.00;63158.22;5136797;27;20694;-59
2023/10/20 04:13:13;;;;;;;0.10;0.10;;;;;;;-144.59;100.00;63158.22;5137020;27;20721;-59
2023/10/20 04:16:12;;;;;;;0.10;0.10;;;;;;;-144.59;100.00;63158.22;5136576;27;20201;-59
2023/10/20 04:19:00;;;;;;;0.10;0.10;;;;;;;-144.59;100.00;63158.22;5136438;27;20675;-59
2023/10/20 04:21:47;;;;;;;0.10;0.10;;;;;;;-144.59;100.00;63158.22;5135127;27;20193;-59
2023/10/20 04:24:36;;;;;;;0.10;0.10;;;;;;;-144.59;100.00;63158.22;5136600;27;20196;-59
2023/10/20 04:27:38;;;;;;;0.10;0.10;;;;;;;-144.59;100.00;63158.22;5136191;27;20239;-59
2023/10/20 04:42:56;;;;;;;0.10;0.10;;;;;;;-144.59;100.00;63158.22;5135973;27;20269;-59
2023/10/20 04:52:13;;;;;;;0.10;0.10;;;;;;;-144.59;100.00;63158.22;5133651;27;20198;-59
2023/10/20 04:55:55;;;;;;;0.10;0.10;;;;;;;-144.59;100.00;63158.22;5135697;27;20193;-59
2023/10/20 04:58:12;;;;;;;0.10;0.10;;;;;;;-144.59;100.00;63158.22;5135828;27;20221;-59
2023/10/20 05:01:07;;;;;;;0.10;0.10;;;;;;;-144.59;100.00;63158.22;5135395;27;20288;-59
2023/10/20 05:03:57;;;;;;;0.10;0.10;;;;;;;-144.59;100.00;63158.22;5135421;27;20220;-59
2023/10/20 05:06:45;;;;;;;0.10;0.10;;;;;;;-144.59;100.00;63158.22;5134288;27;20198;-59
2023/10/20 05:09:33;;;;;;;0.10;0.10;;;;;;;-144.59;100.00;63158.22;5135677;27;20281;-59
2023/10/20 05:12:20;;;;;;;0.10;0.10;;;;;;;-144.59;100.00;63158.22;5135276;27;20197;-59
2023/10/20 05:15:10;;;;;;;0.10;0.10;;;;;;;-144.59;100.00;63158.22;5135421;27;20266;-59
2023/10/20 05:17:58;;;;;;;0.10;0.10;;;;;;;-144.59;100.00;63158.22;5135367;27;20208;-59
2023/10/20 05:20:46;;;;;;;0.10;0.10;;;;;;;-144.59;100.00;63158.22;5134074;27;20202;-59
2023/10/20 05:23:36;;;;;;;0.07;0.07;;;;;;;-144.59;100.00;63158.22;5135306;27;20284;-59
2023/10/20 05:26:23;;;;;;;0.10;0.10;;;;;;;-144.59;100.00;63158.22;5135133;27;20186;-59
2023/10/20 05:29:11;;;;;;;0.10;0.10;;;;;;;-144.59;100.00;63158.22;5135151;27;20198;-59
2023/10/20 05:31:58;;;;;;;0.10;0.10;;;;;;;-144.59;100.00;63158.22;5135096;27;20238;-59
2023/10/20 05:34:46;;;;;;;0.10;0.10;;;;;;;-144.59;100.00;63158.22;5134717;27;20229;-59
2023/10/20 05:37:33;;;;;;;0.10;0.10;;;;;;;-144.59;100.00;63158.22;5133499;27;20537;-60
2023/10/20 05:40:20;;;;;;;0.10;0.10;;;;;;;-144.59;100.00;63158.22;5134807;27;20193;-59
2023/10/20 05:43:06;;;;;;;0.10;0.10;;;;;;;-144.59;100.00;63158.22;5134585;27;20247;-59
2023/10/20 05:45:53;;;;;;;0.10;0.10;;;;;;;-144.59;100.00;63158.22;5134624;27;20193;-59
2023/10/20 05:48:40;;;;;;;0.10;0.10;;;;;;;-144.59;100.00;63158.22;5134649;27;20197;-59
2023/10/20 05:51:28;;;;;;;0.10;0.10;;;;;;;-144.59;100.00;63158.22;5133149;27;20194;-59
2023/10/20 05:54:15;;;;;;;0.10;0.10;;;;;;;-144.59;100.00;63158.22;5134854;27;20197;-59
2023/10/20 05:57:03;;;;;;;0.10;0.10;;;;;;;-144.59;100.00;63158.22;5134665;27;20194;-59
2023/10/20 05:59:51;;;;;;;0.10;0.10;;;;;;;-144.59;100.00;63158.22;5134730;27;20185;-59
2023/10/20 06:02:37;;;;;;;0.10;0.10;;;;;;;-144.59;100.00;63158.22;5134334;27;20194;-59
2023/10/20 06:05:26;;;;;;;0.10;0.10;;;;;;;-144.59;100.00;63158.22;5132844;27;20339;-60
2023/10/20 06:08:15;;;;;;;0.10;0.10;;;;;;;-144.59;100.00;63158.22;5134598;27;20198;-59
2023/10/20 06:11:03;;;;;;;0.10;0.10;;;;;;;-144.59;100.00;63158.22;5134574;27;20533;-59
2023/10/20 06:13:50;;;;;;;0.10;0.10;;;;;;;-144.59;100.00;63158.22;5134069;27;20189;-59
2023/10/20 06:16:37;;;;;;;0.20;0.20;;;;;;;-144.59;100.00;63158.22;5134428;27;20189;-59
2023/10/20 06:19:24;;;;;;;0.10;0.10;;;;;;;-144.59;100.00;63158.22;5134137;27;20232;-59
2023/10/20 06:22:11;;;;;;;0.10;0.10;;;;;;;-144.59;100.00;63158.22;5132727;27;20723;-60
2023/10/20 06:24:59;;;;;;;0.17;0.17;;;;;;;-144.59;100.00;63158.22;5133874;27;20213;-59
2023/10/20 06:27:46;;;;;;;0.10;0.10;;;;;;;-144.59;100.00;63158.22;5134018;27;20198;-59
2023/10/20 06:30:33;;;;;;;0.10;0.10;;;;;;;-144.59;100.00;63158.22;5133676;27;20193;-59
2023/10/20 06:33:19;;;;;;;0.10;0.10;;;;;;;-144.59;100.00;63158.22;5133782;27;20190;-59
2023/10/20 06:36:10;;;;;;;0.10;0.10;;;;;;;-144.59;100.00;63158.22;5132746;27;20190;-59
2023/10/20 06:38:58;;;;;;;0.10;0.10;;;;;;;-144.59;100.00;63158.22;5133890;27;20373;-59
2023/10/20 06:41:46;;;;;;;0.10;0.10;;;;;;;-144.59;100.00;63158.22;5133616;27;20193;-59
2023/10/20 06:44:38;;;;;;;0.10;0.10;;;;;;;-144.59;100.00;63158.22;5133341;27;20348;-59
2023/10/20 06:47:25;;;;;;;0.10;0.10;;;;;;;-144.59;100.00;63158.22;5133515;27;20193;-59
2023/10/20 06:50:12;;;;;;;0.10;0.10;;;;;;;-144.59;100.00;63158.22;5133579;27;20213;-59
2023/10/20 06:52:59;;;;;;;0.10;0.10;;;;;;;-144.59;100.00;63158.22;5133919;27;20676;-59
2023/10/20 06:55:48;;;;;;;0.10;0.10;;;;;;;-144.59;100.00;63158.22;5133599;28;20651;-59
2023/10/20 06:58:56;;;;;;;0.10;0.10;;;;;;;-144.59;100.00;63158.22;5133617;28;20189;-59
2023/10/20 07:01:43;;;;;;;0.10;0.10;;;;;;;-144.59;100.00;63158.22;5133594;28;20193;-59
2023/10/20 07:04:31;;;;;;;0.10;0.10;;;;;;;-144.59;100.00;63158.22;5133325;28;20217;-59
2023/10/20 07:07:19;;;;;;;0.10;0.10;;;;;;;-144.59;100.00;63158.22;5132348;28;20687;-59
2023/10/20 07:10:10;;;;;;;0.10;0.10;;;;;;;-144.59;100.00;63158.22;5133793;28;20255;-59
2023/10/20 07:12:57;;;;;;;0.10;0.10;;;;;;;-144.59;100.00;63158.22;5133596;28;20193;-59
2023/10/20 07:15:45;;;;;;;0.10;0.10;;;;;;;-144.59;100.00;63158.22;5135655;27;20189;-59
2023/10/20 07:18:32;;;;;;;0.10;0.10;;;;;;;-144.59;100.00;63158.22;5137406;27;20186;-59
2023/10/20 07:21:19;;;;;;;0.10;0.10;;;;;;;-144.59;100.00;63158.22;5136308;27;20197;-59
2023/10/20 07:24:07;;;;;;;0.10;0.10;;;;;;;-144.59;100.00;63158.22;5137715;27;20213;-59
2023/10/20 07:26:54;;;;;;;0.10;0.10;;;;;;;-144.59;100.00;63158.22;5137257;27;20200;-59
2023/10/20 07:29:41;;;;;;;0.10;0.10;;;;;;;-144.59;100.00;63158.22;5137457;27;20193;-59
2023/10/20 07:32:34;;;;;;;0.10;0.10;;;;;;;-144.59;100.00;63158.22;5137297;27;20185;-59
2023/10/20 07:35:22;;;;;;;0.10;0.10;;;;;;;-144.59;100.00;63158.22;5135952;27;20248;-59
2023/10/20 07:38:09;;;;;;;0.10;0.10;;;;;;;-144.59;100.00;63158.22;5137269;27;20307;-59
2023/10/20 07:40:56;;;;;;;0.10;0.10;;;;;;;-144.59;100.00;63158.22;5137215;27;20193;-59
2023/10/20 07:43:43;;;;;;;0.10;0.10;;;;;;;-144.59;100.00;63158.22;5136916;27;20675;-59
2023/10/20 07:46:31;;;;;;;0.10;0.10;;;;;;;-144.59;100.00;63158.22;5137054;27;20193;-59
2023/10/20 07:49:19;;;;;;;0.10;0.10;;;;;;;-144.59;100.00;63158.22;5137083;27;20227;-59
2023/10/20 07:52:07;;;;;;;0.10;0.10;;;;;;;-144.59;100.00;63158.22;5135359;27;20284;-59
2023/10/20 07:54:54;;;;;;;0.10;0.10;;;;;;;-144.59;100.00;63158.22;5137104;27;20186;-59
2023/10/20 07:57:41;;;;;;;0.10;0.10;;;;;;;-144.59;100.00;63158.22;5137017;27;20209;-59
2023/10/20 08:00:29;;;;;;;0.10;0.10;;;;;;;-144.59;100.00;63158.22;5137051;27;20190;-59
2023/10/20 08:03:16;;;;;;;0.10;0.10;;;;;;;-144.59;100.00;63158.22;5136571;27;20193;-59
2023/10/20 08:06:05;;;;;;;0.10;0.10;;;;;;;-144.59;100.00;63158.22;5135184;27;20228;-59
2023/10/20 08:08:52;;;;;;;0.10;0.10;;;;;;;-144.59;100.00;63158.22;5136597;27;20194;-59
2023/10/20 08:11:41;;;;;;;0.10;0.10;;;;;;;-144.59;100.00;63158.22;5136678;27;20213;-59
2023/10/20 08:14:28;;;;;;;0.10;0.10;;;;;;;-144.59;100.00;63158.22;5136307;27;20691;-59
2023/10/20 08:17:15;;;;;;;0.10;0.10;;;;;;;-144.59;100.00;63158.22;5136157;27;20194;-59
2023/10/20 08:20:07;;;;;;;0.10;0.10;;;;;;;-144.59;100.00;63158.22;5136540;27;20201;-59
2023/10/20 08:22:55;;;;;;;0.10;0.10;;;;;;;-144.59;100.00;63158.22;5136036;27;20198;-59
2023/10/20 08:25:42;;;;;;;0.10;0.10;;;;;;;-144.59;100.00;63158.22;5136288;27;20237;-59
2023/10/20 08:28:29;;;;;;;0.10;0.10;;;;;;;-144.59;100.00;63158.22;5135456;27;20310;-59
2023/10/20 08:31:17;;;;;;;0.10;0.10;;;;;;;-144.59;100.00;63158.22;5136269;27;20205;-59
2023/10/20 08:34:04;;;;;;;0.10;0.10;;;;;;;-144.59;100.00;63158.22;5135924;27;20754;-59
2023/10/20 08:36:51;;;;;;;0.10;0.10;;;;;;;-144.59;100.00;63158.22;5134934;27;20190;-59
2023/10/20 08:39:39;;;;;;;0.10;0.10;;;;;;;-144.59;100.00;63158.22;5136041;27;20205;-59
2023/10/20 08:42:26;;;;;;;0.10;0.10;;;;;;;-144.59;100.00;63158.22;5136126;27;20208;-59
2023/10/20 08:45:14;;;;;;;0.10;0.10;;;;;;;-144.59;100.00;63158.22;5135703;27;20217;-59
2023/10/20 08:48:02;;;;;;;0.10;0.10;;;;;;;-144.59;100.00;63158.22;5135897;27;20245;-59
2023/10/20 08:50:50;;;;;;;0.10;0.10;;;;;;;-144.59;100.00;63158.22;5134597;27;20203;-59
2023/10/20 08:53:37;;;;;;;0.10;0.10;;;;;;;-144.59;100.00;63158.22;5136026;27;20194;-59
2023/10/20 08:56:26;;;;;;;0.10;0.10;;;;;;;-144.59;100.00;63158.22;5136001;27;20194;-59
2023/10/20 08:59:13;;;;;;;0.10;0.10;;;;;;;-144.59;100.00;63158.22;5135684;27;20197;-59
2023/10/20 09:02:00;;;;;;;0.10;0.10;;;;;;;-144.59;100.00;63158.22;5135790;27;20304;-57
2023/10/20 09:04:51;;;;;;;0.10;0.10;;;;;;;-144.59;100.00;63158.22;5135460;27;20209;-57
2023/10/20 09:07:38;;;;;;;0.10;0.10;;;;;;;-144.59;100.00;63158.22;5134238;27;20208;-59
2023/10/20 09:10:25;;;;;;;0.10;0.10;;;;;;;-144.59;100.00;63158.22;5135361;27;20194;-57
2023/10/20 09:13:13;;;;;;;0.10;0.10;;;;;;;-144.59;100.00;63158.22;5135512;27;20211;-57
2023/10/20 09:16:00;;;;;;;0.10;0.10;;;;;;;-144.59;100.00;63158.22;5135422;27;20307;-57
2023/10/20 09:18:49;;;;;;;0.10;0.10;;;;;;;-144.59;100.00;63158.22;5135142;27;20202;-57
2023/10/20 09:21:39;;;;;;;0.10;0.10;;;;;;;-144.59;100.00;63158.22;5133749;27;20320;-57
2023/10/20 09:24:31;;;;;;;0.10;0.10;;;;;;;-144.59;100.00;63158.22;5135024;27;20668;-57
2023/10/20 09:27:17;;;;;;;0.10;0.10;;;;;;;-144.59;100.00;63158.22;5135420;27;20186;-57
2023/10/20 09:30:10;;;;;;;0.10;0.10;;;;;;;-144.59;100.00;63158.22;5135007;27;20223;-57
2023/10/20 09:32:57;;;;;;;0.10;0.10;;;;;;;-144.59;100.00;63158.22;5134947;27;20672;-57
2023/10/20 09:35:46;;;;;;;0.10;0.10;;;;;;;-144.59;100.00;63158.22;5133657;27;20751;-57
2023/10/20 09:38:37;;;;;;;0.10;0.10;;;;;;;-144.59;100.00;63158.22;5134528;27;20192;-57
2023/10/20 09:41:25;;;;;;;0.10;0.10;;;;;;;-144.59;100.00;63158.22;5134977;27;20193;-57
2023/10/20 09:44:20;;;;;;;0.10;0.10;;;;;;;-144.59;100.00;63158.22;5134770;27;20197;-57
2023/10/20 09:47:19;;;;;;;0.10;0.10;;;;;;;-144.59;100.00;63158.22;5134698;27;20308;-57
2023/10/20 09:50:11;;;;;;;0.10;0.10;;;;;;;-144.59;100.00;63158.22;5134170;27;20197;-57
2023/10/20 09:52:59;;;;;;;0.10;0.10;;;;;;;-144.59;100.00;63158.22;5134686;27;20201;-57
2023/10/20 09:55:48;;;;;;;0.10;0.10;;;;;;;-144.59;100.00;63158.22;5134649;27;20196;-57
2023/10/20 09:58:38;;;;;;;0.10;0.10;;;;;;;-144.59;100.00;63158.22;5134577;27;20201;-57
2023/10/20 10:01:24;;;;;;;0.10;0.10;;;;;;;-144.59;100.00;63158.22;5134259;27;20193;-57
2023/10/20 10:04:13;;;;;;;0.10;0.10;;;;;;;-144.59;100.00;63158.22;5134482;27;20300;-57
2023/10/20 10:07:03;;;;;;;0.10;0.10;;;;;;;-144.59;100.00;63158.22;5132861;27;20216;-57
2023/10/20 10:09:51;;;;;;;0.10;0.10;;;;;;;-144.59;100.00;63158.22;5134209;27;20278;-57
2023/10/20 10:12:37;;;;;;;0.10;0.10;;;;;;;-144.59;100.00;63158.22;5134507;27;20193;-57
2023/10/20 10:15:36;;;;;;;0.10;0.10;;;;;;;-144.59;100.00;63158.22;5134181;27;20193;-57
2023/10/20 10:18:24;;;;;;;0.10;0.10;;;;;;;-144.59;100.00;63158.22;5134051;27;20209;-57
2023/10/20 10:21:24;;;;;;;0.10;0.10;;;;;;;-144.59;100.00;63158.22;5117099;27;20193;-57
2023/10/20 10:24:15;;;;;;;0.10;0.10;;;;;;;-144.59;100.00;63158.22;5133887;27;20196;-57
2023/10/20 10:27:04;;;;;;;0.10;0.10;;;;;;;-144.59;100.00;63158.22;5133763;27;20221;-57
2023/10/20 10:29:54;;;;;;;0.00;0.00;;;;;;;-144.59;100.00;63158.22;5133863;27;20194;-57
2023/10/20 10:32:47;;;;;;;0.10;0.10;;;;;;;-144.59;100.00;63158.22;5133983;27;20213;-57
2023/10/20 10:35:34;;;;;;;0.10;0.10;;;;;;;-144.59;100.00;63158.22;5132445;27;20271;-57
2023/10/20 10:38:23;;;;;;;0.10;0.10;;;;;;;-144.59;100.00;63158.22;5134322;27;20197;-57
2023/10/20 10:41:10;;;;;;;0.10;0.10;;;;;;;-144.59;100.00;63158.22;5133790;27;20205;-57
2023/10/20 10:43:57;;;;;;;0.10;0.10;;;;;;;-144.59;100.00;63158.22;5133551;27;20188;-57
2023/10/20 10:46:44;;;;;;;0.10;0.10;;;;;;;-144.59;100.00;63158.22;5133370;27;20225;-57
2023/10/20 10:49:31;;;;;;;0.00;0.00;;;;;;;-144.59;100.00;63158.22;5133044;27;20295;-57
2023/10/20 10:52:18;;;;;;;0.10;0.10;;;;;;;-144.59;100.00;63158.22;5132413;27;20312;-57
2023/10/20 10:55:09;;;;;;;0.10;0.10;;;;;;;-144.59;100.00;63158.22;5133904;27;20227;-57
2023/10/20 10:57:57;;;;;;;0.10;0.10;;;;;;;-144.59;100.00;63158.22;5133869;27;20375;-57
2023/10/20 11:00:46;;;;;;;0.10;0.10;;;;;;;-144.59;100.00;63158.22;5133507;28;20194;-58
2023/10/20 11:03:33;;;;;;;0.00;0.00;;;;;;;-144.59;100.00;63158.22;5133568;28;20186;-58
2023/10/20 11:06:20;;;;;;;0.03;0.03;;;;;;;-144.59;100.00;63158.22;5131909;28;20228;-58
2023/10/20 11:09:10;;;;;;;0.05;0.05;;;;;;;-144.59;100.00;63158.22;5133319;28;20197;-57
2023/10/20 11:11:59;;;;;;;0.10;0.10;;;;;;;-144.59;100.00;63158.22;5133239;28;20190;-57
2023/10/20 11:14:46;;;;;;;0.00;0.00;;;;;;;-144.59;100.00;63158.22;5117975;28;20198;-57
2023/10/20 11:17:33;;;;;;;0.10;0.10;;;;;;;-144.59;100.00;63158.22;5133279;28;20209;-57
2023/10/20 11:20:20;;;;;;;0.10;0.10;;;;;;;-144.59;100.00;63158.22;5131976;28;20198;-57
2023/10/20 11:23:08;;;;;;;0.10;0.10;;;;;;;-144.59;100.00;63158.22;5133125;28;20197;-57
2023/10/20 11:25:54;;;;;;;0.10;0.10;;;;;;;-144.59;100.00;63158.22;5133129;28;20335;-59
2023/10/20 11:28:43;;;;;;;0.10;0.10;;;;;;;-144.59;100.00;63158.22;5133425;28;20193;-57
2023/10/20 11:31:30;;;;;;;0.10;0.10;;;;;;;-144.59;100.00;63158.22;5133345;28;20189;-57
2023/10/20 11:34:18;;;;;;;0.10;0.10;;;;;;;-144.59;100.00;63158.22;5132832;28;20229;-57
2023/10/20 11:37:05;;;;;;;0.10;0.10;;;;;;;-144.59;100.00;63158.22;5132062;28;20552;-57
2023/10/20 11:39:52;;;;;;;0.10;0.10;;;;;;;-144.59;100.00;63158.22;5133534;28;20217;-57
2023/10/20 11:42:38;;;;;;;0.10;0.10;;;;;;;-144.59;100.00;63158.22;5133027;28;20193;-57
2023/10/20 11:45:27;;;;;;;0.10;0.10;;;;;;;-144.59;100.00;63158.22;5133092;28;20248;-57
2023/10/20 11:48:13;;;;;;;0.10;0.10;;;;;;;-144.59;100.00;63158.22;5133039;28;20198;-57
2023/10/20 11:51:00;;;;;;;0.10;0.10;;;;;;;-144.59;100.00;63158.22;5131875;28;20201;-57
2023/10/20 11:53:47;;;;;;;0.10;0.10;;;;;;;-144.59;100.00;63158.22;5133239;28;20213;-57
2023/10/20 11:56:35;;;;;;;0.10;0.10;;;;;;;-144.59;100.00;63158.22;5133138;28;20194;-57
2023/10/20 11:59:21;;;;;;;0.10;0.10;;;;;;;-144.59;100.00;63158.22;5132994;28;20205;-57
2023/10/20 12:02:10;;;;;;;0.10;0.10;;;;;;;-144.59;100.00;63158.22;5135632;27;20240;-57
2023/10/20 12:04:57;;;;;;;0.10;0.10;;;;;;;-144.59;100.00;63158.22;5136893;27;20209;-57
2023/10/20 12:07:44;;;;;;;0.00;0.00;;;;;;;-144.59;100.00;63158.22;5136106;27;20216;-57
2023/10/20 12:10:31;;;;;;;0.10;0.10;;;;;;;-144.59;100.00;63158.22;5136441;27;20250;-57
2023/10/20 12:13:19;;;;;;;0.10;0.10;;;;;;;-144.59;100.00;63158.22;5136556;27;20315;-57
2023/10/20 12:16:08;;;;;;;0.10;0.10;;;;;;;-144.59;100.00;63158.22;5136449;27;20186;-57
2023/10/20 12:19:01;;;;;;;0.10;0.10;;;;;;;-144.59;100.00;63158.22;5136242;27;20193;-57
2023/10/20 12:21:48;;;;;;;0.10;0.10;;;;;;;-144.59;100.00;63158.22;5134959;27;20213;-57
2023/10/20 12:24:35;;;;;;;0.10;0.10;;;;;;;-144.59;100.00;63158.22;5136150;27;20349;-57
2023/10/20 12:27:22;;;;;;;0.10;0.10;;;;;;;-144.59;100.00;63158.22;5136042;27;20263;-57
2023/10/20 12:30:10;;;;;;;0.10;0.10;;;;;;;-144.59;100.00;63158.22;5136119;27;20202;-57
2023/10/20 12:32:57;;;;;;;0.10;0.10;;;;;;;-144.59;100.00;63158.22;5136360;27;20238;-57
2023/10/20 12:35:46;;;;;;;0.10;0.10;;;;;;;-144.59;100.00;63158.22;5134737;27;20194;-57
2023/10/20 12:38:32;;;;;;;0.10;0.10;;;;;;;-144.59;100.00;63158.22;5136057;27;20284;-58
2023/10/20 12:41:19;;;;;;;0.10;0.10;;;;;;;-144.59;100.00;63158.22;5135985;27;20265;-58
2023/10/20 12:44:07;;;;;;;0.10;0.10;;;;;;;-144.59;100.00;63158.22;5135763;27;20322;-58
2023/10/20 12:46:53;;;;;;;0.10;0.10;;;;;;;-144.59;100.00;63158.22;5135804;27;20225;-59
2023/10/20 12:49:40;;;;;;;0.10;0.10;;;;;;;-144.59;100.00;63158.22;5135964;27;20194;-59
2023/10/20 12:52:28;;;;;;;0.10;0.10;;;;;;;-144.59;100.00;63158.22;5134351;27;20198;-59
2023/10/20 12:55:15;;;;;;;0.10;0.10;;;;;;;-144.59;100.00;63158.22;5135747;27;20307;-59
2023/10/20 12:58:03;;;;;;;0.10;0.10;;;;;;;-144.59;100.00;63158.22;5135667;27;20193;-58
2023/10/20 13:00:50;;;;;;;0.10;0.10;;;;;;;-144.59;100.00;63158.22;5135433;27;20194;-58
2023/10/20 13:03:37;;;;;;;0.10;0.10;;;;;;;-144.59;100.00;63158.22;5135524;27;20193;-59